Rockingham, Australia
Current Conditions -  °F | °C
As of 3:30 AM on Wednesday 22 Oct 2014 (Local Time) from YPJT Reporting Station
Clear Clear  
Wind Chill: 64°   Ceiling: Unl
Heat Index: 64°   Visibility: 6mi
Dew Point: 54°   Wind: 16mph
Humidity: 68%   Direction: 80°E
Pressure: 29.94"   Gusts: NA
Location:  32.28°S, 115.73°E
Report Text: YPJT 211930Z AUTO 08014KT 9999 // NCD 18/12 Q1014
Loading
Personal Weather Stations






























Interactive Weather Map
Tropical Storm Tracking
New forecast layout! Learn more

10-Day Weather Forecast

Advertisements
Track Severe Weather on mobile